Bookmark and Share
Track history (hours):
 

MSC Leanne

Last reported at 2014-Apr-05 08:30 UTC. Time now 2014-Apr-16 07:39 UTC.
Position N 19°29' W 106°00'.
Warning: this ship's position is 10 days out of date.

Length 294 m; draft 13 m.

Type: Ship (hazmat cat A). MMSI: 357723000.

NotesDate/timePositionNaut miles runAvg speedWind from/ knotsBaromVisibWave heightAir tempDewpointWater temp
2014-Apr-05 08:30N 19°29' W 106°00'5418.3
2014-Apr-05 05:33N 19°58' W 106°49'2618.4
2014-Apr-05 04:10N 20°11' W 107°12'  
2014-Mar-31 07:17N 48°25' W 124°22'1316.9
2014-Mar-31 06:32N 48°20' W 124°05'1616.9
2014-Mar-31 05:33N 48°16' W 123°41'1514.7
2014-Mar-31 04:33N 48°09' W 123°21'1717.1
2014-Mar-31 03:33N 48°12' W 122°56'1817.6
2014-Mar-31 02:33N 48°00' W 122°36'1817.6
2014-Mar-31 01:33N 47°44' W 122°26'9 9.3
2014-Mar-31 00:33N 47°36' W 122°20'0 0.0
2014-Mar-30 23:31N 47°36' W 122°20'0 0.0
2014-Mar-30 22:28N 47°36' W 122°20'0 0.0
2014-Mar-30 21:31N 47°36' W 122°20'0 0.0
2014-Mar-30 20:31N 47°36' W 122°20'0 0.0
2014-Mar-30 19:31N 47°36' W 122°20'0 0.0
2014-Mar-30 18:31N 47°36' W 122°20'0 0.0
2014-Mar-30 17:31N 47°36' W 122°21'0 0.0
2014-Mar-30 16:31N 47°36' W 122°21'0 0.0
2014-Mar-30 15:31N 47°36' W 122°21'0 0.0
2014-Mar-30 14:31N 47°36' W 122°21'0 0.0
2014-Mar-30 13:25N 47°36' W 122°21'0 0.0
2014-Mar-30 12:31N 47°36' W 122°20'0 0.0
2014-Mar-30 11:28N 47°36' W 122°20'0 0.0
2014-Mar-30 10:31N 47°36' W 122°20'0 0.0
2014-Mar-30 09:31N 47°36' W 122°20'0 0.0
2014-Mar-30 08:31N 47°36' W 122°21'0 0.0
2014-Mar-30 07:31N 47°36' W 122°20'0 0.0
2014-Mar-30 06:28N 47°36' W 122°20'0 0.0
2014-Mar-30 05:31N 47°36' W 122°20'0 0.0
2014-Mar-30 04:31N 47°36' W 122°20'0 0.0
2014-Mar-30 03:31N 47°36' W 122°20'0 0.0
2014-Mar-30 02:31N 47°36' W 122°20'0 0.0
2014-Mar-30 01:31N 47°36' W 122°20'0 0.0
2014-Mar-30 00:31N 47°36' W 122°20'0 0.0
2014-Mar-29 23:28N 47°36' W 122°20'0 0.0
2014-Mar-29 22:31N 47°36' W 122°20'0 0.0
2014-Mar-29 21:28N 47°36' W 122°20'0 0.0
2014-Mar-29 20:31N 47°36' W 122°21'0 0.0
2014-Mar-29 19:28N 47°36' W 122°20'0 0.0
2014-Mar-29 18:31N 47°36' W 122°20'0 0.0
2014-Mar-29 17:28N 47°36' W 122°21'0 0.0
2014-Mar-29 16:31N 47°36' W 122°21'0 0.0
2014-Mar-29 15:31N 47°36' W 122°21'0 0.0
2014-Mar-29 14:31N 47°36' W 122°21'0 0.0
2014-Mar-29 13:31N 47°36' W 122°21'3 3.2
2014-Mar-29 12:33N 47°37' W 122°25'1313.4
2014-Mar-29 11:33N 47°50' W 122°28'1716.6
2014-Mar-29 10:33N 48°05' W 122°39'1717.0
2014-Mar-29 09:33N 48°12' W 123°03'1515.5
2014-Mar-29 08:33N 48°11' W 123°26'1313.4
2014-Mar-29 07:33N 48°13' W 123°46'1615.9
2014-Mar-29 06:33N 48°18' W 124°09'3515.6
2014-Mar-29 04:19N 48°28' W 124°59'60017.6
2014-Mar-27 18:13N 38°29' W 123°58'1217.9
2014-Mar-27 17:33N 38°21' W 123°48'1313.2
2014-Mar-27 16:33N 38°12' W 123°36'9 9.4
2014-Mar-27 15:33N 38°10' W 123°24'9 9.0
2014-Mar-27 14:33N 38°04' W 123°15'10 9.7
2014-Mar-27 13:33N 37°58' W 123°07'10 9.6
2014-Mar-27 12:33N 37°53' W 122°56'10 9.5
2014-Mar-27 11:33N 37°48' W 122°46'10 9.7
2014-Mar-27 10:33N 37°47' W 122°33'1110.8
2014-Mar-27 09:33N 37°49' W 122°20'1 0.8
2014-Mar-27 08:34N 37°49' W 122°19'0 0.0
2014-Mar-27 07:32N 37°49' W 122°19'0 0.0
2014-Mar-27 06:32N 37°49' W 122°19'0 0.0
2014-Mar-27 05:32N 37°49' W 122°19'0 0.0
2014-Mar-27 04:32N 37°49' W 122°19'0 0.0
2014-Mar-27 03:32N 37°49' W 122°19'0 0.0
2014-Mar-27 02:32N 37°49' W 122°19'0 0.0
2014-Mar-27 01:32N 37°49' W 122°19'0 0.0
2014-Mar-27 00:32N 37°49' W 122°19'0 0.0
2014-Mar-26 23:32N 37°49' W 122°19'0 0.0
2014-Mar-26 20:29N 37°49' W 122°19'0 0.0
2014-Mar-26 19:32N 37°49' W 122°19'0 0.0
2014-Mar-26 17:32N 37°49' W 122°19'0 0.0
2014-Mar-26 16:32N 37°49' W 122°19'0 0.0
2014-Mar-26 15:32N 37°49' W 122°19'0 0.0
2014-Mar-26 14:32N 37°49' W 122°19'0 0.0
2014-Mar-26 13:32N 37°49' W 122°19'0 0.0
2014-Mar-26 12:32N 37°49' W 122°19'0 0.0
2014-Mar-26 11:32N 37°49' W 122°19'0 0.0
2014-Mar-26 10:32N 37°49' W 122°19'0 0.0
2014-Mar-26 09:32N 37°49' W 122°19'0 0.0
2014-Mar-26 08:32N 37°49' W 122°19'  

Dump ship's entire track history

sailing weather and tide predictions

MSC Leanne — 3EXH3 — position and weather